Flight Briefing for CMB853

Departure Arrival
Yokota AFB (RJTY)
Click to view FAA NOTAMS
Guam International Airport (PGUM)
Click to view FAA NOTAMS
Departure Time Arrival Time
N/A N/A
Aircraft Distance
B757-200SF 1364nm
Departure METAR Arrival METAR
RJTY 190656Z AUTO 00000KT 10SM SCT140 16/M04 A2995 RMK AO2 SLPNO T01611039 FZRANO $ PGUM 190654Z 07017KT 10SM FEW027 29/21 A2986 RMK AO2 SLP102 T02890211
Suggested Route
XAC B586 UNZ


View recent IFR Routes data
Notes
USTRANSCOM CONTRACT FLIGHT

Charts and Procedures

Charts for RJTY
No chart available
Charts for PGUM
No chart available

Windy.com Weather Map